Penza, Russia
Current Conditions -  °F | °C
As of 8:30 PM on Thursday 30 Oct 2014 (Local Time) from UWSS Reporting Station
Overcast Overcast  
Wind Chill: 41°   Ceiling: 3100
Heat Index: 45°   Visibility: 6mi
Dew Point: 34°   Wind: 7mph
Humidity: 66%   Direction: 180°S
Pressure: 30.24"   Gusts: NA
Location:  53.2°N, 45°E
Report Text: UWSS 301730Z 18003MPS 9999 BKN031 OVC100 07/01 Q1024 120///60NOSIG RMK QFE756
Loading
Personal Weather Stations






























Interactive Weather Map
Tropical Storm Tracking
New forecast layout! Learn more

10-Day Weather Forecast

Advertisements
Track Severe Weather on mobile